sensor_id;sensor_type;location;lat;lon;timestamp;P1;durP1;ratioP1;P2;durP2;ratioP2
9005;SDS011;62284;50.702;7.140;2022-09-25T00:00:29;26.50;;;24.50;;
9005;SDS011;62284;50.702;7.140;2022-09-25T00:02:58;26.65;;;24.55;;
9005;SDS011;62284;50.702;7.140;2022-09-25T00:05:25;27.35;;;25.25;;
9005;SDS011;62284;50.702;7.140;2022-09-25T00:07:52;29.48;;;27.08;;
9005;SDS011;62284;50.702;7.140;2022-09-25T00:10:20;29.00;;;26.65;;
9005;SDS011;62284;50.702;7.140;2022-09-25T00:12:48;29.60;;;27.33;;
9005;SDS011;62284;50.702;7.140;2022-09-25T00:15:15;28.95;;;26.55;;
9005;SDS011;62284;50.702;7.140;2022-09-25T00:17:42;31.42;;;28.83;;
9005;SDS011;62284;50.702;7.140;2022-09-25T00:20:11;29.77;;;27.58;;
9005;SDS011;62284;50.702;7.140;2022-09-25T00:22:38;28.15;;;25.90;;
9005;SDS011;62284;50.702;7.140;2022-09-25T00:25:06;28.15;;;25.95;;
9005;SDS011;62284;50.702;7.140;2022-09-25T00:27:36;27.73;;;25.50;;
9005;SDS011;62284;50.702;7.140;2022-09-25T00:30:03;27.00;;;24.95;;
9005;SDS011;62284;50.702;7.140;2022-09-25T00:32:30;29.33;;;27.02;;
9005;SDS011;62284;50.702;7.140;2022-09-25T00:34:57;28.70;;;26.35;;
9005;SDS011;62284;50.702;7.140;2022-09-25T00:37:25;26.83;;;24.73;;
9005;SDS011;62284;50.702;7.140;2022-09-25T00:39:53;27.42;;;25.23;;
9005;SDS011;62284;50.702;7.140;2022-09-25T00:42:20;29.33;;;27.10;;
9005;SDS011;62284;50.702;7.140;2022-09-25T00:44:52;29.13;;;26.92;;
9005;SDS011;62284;50.702;7.140;2022-09-25T00:47:26;27.58;;;25.38;;
9005;SDS011;62284;50.702;7.140;2022-09-25T00:50:11;29.98;;;27.48;;
9005;SDS011;62284;50.702;7.140;2022-09-25T00:52:45;28.27;;;26.08;;
9005;SDS011;62284;50.702;7.140;2022-09-25T00:55:14;28.95;;;26.65;;
9005;SDS011;62284;50.702;7.140;2022-09-25T00:57:41;28.15;;;25.95;;
9005;SDS011;62284;50.702;7.140;2022-09-25T01:00:13;27.15;;;25.08;;
9005;SDS011;62284;50.702;7.140;2022-09-25T01:02:41;29.23;;;26.92;;
9005;SDS011;62284;50.702;7.140;2022-09-25T01:05:12;27.20;;;24.95;;
9005;SDS011;62284;50.702;7.140;2022-09-25T01:07:43;26.58;;;24.48;;
9005;SDS011;62284;50.702;7.140;2022-09-25T01:10:14;27.88;;;25.75;;
9005;SDS011;62284;50.702;7.140;2022-09-25T01:12:44;27.23;;;25.10;;
9005;SDS011;62284;50.702;7.140;2022-09-25T01:15:14;26.23;;;24.13;;
9005;SDS011;62284;50.702;7.140;2022-09-25T01:17:46;28.52;;;26.20;;
9005;SDS011;62284;50.702;7.140;2022-09-25T01:20:28;28.92;;;26.50;;
9005;SDS011;62284;50.702;7.140;2022-09-25T01:23:19;26.77;;;24.63;;
9005;SDS011;62284;50.702;7.140;2022-09-25T01:26:03;27.92;;;25.75;;
9005;SDS011;62284;50.702;7.140;2022-09-25T01:28:55;27.33;;;25.13;;
9005;SDS011;62284;50.702;7.140;2022-09-25T01:31:29;29.30;;;27.00;;
9005;SDS011;62284;50.702;7.140;2022-09-25T01:34:01;29.13;;;26.77;;
9005;SDS011;62284;50.702;7.140;2022-09-25T01:36:44;27.73;;;25.55;;
9005;SDS011;62284;50.702;7.140;2022-09-25T01:39:16;28.45;;;26.25;;
9005;SDS011;62284;50.702;7.140;2022-09-25T01:41:47;27.42;;;25.10;;
9005;SDS011;62284;50.702;7.140;2022-09-25T01:44:19;27.63;;;25.42;;
9005;SDS011;62284;50.702;7.140;2022-09-25T01:46:54;28.70;;;26.38;;
9005;SDS011;62284;50.702;7.140;2022-09-25T01:49:26;29.13;;;26.92;;
9005;SDS011;62284;50.702;7.140;2022-09-25T01:51:56;28.60;;;26.27;;
9005;SDS011;62284;50.702;7.140;2022-09-25T01:54:26;29.95;;;27.52;;
9005;SDS011;62284;50.702;7.140;2022-09-25T01:56:58;29.45;;;27.08;;
9005;SDS011;62284;50.702;7.140;2022-09-25T01:59:34;30.48;;;27.98;;
9005;SDS011;62284;50.702;7.140;2022-09-25T02:02:06;28.15;;;25.95;;
9005;SDS011;62284;50.702;7.140;2022-09-25T02:04:38;28.38;;;26.17;;
9005;SDS011;62284;50.702;7.140;2022-09-25T02:07:09;29.40;;;27.10;;
9005;SDS011;62284;50.702;7.140;2022-09-25T02:09:41;28.30;;;26.15;;
9005;SDS011;62284;50.702;7.140;2022-09-25T02:12:10;30.80;;;28.20;;
9005;SDS011;62284;50.702;7.140;2022-09-25T02:14:42;32.20;;;29.55;;
9005;SDS011;62284;50.702;7.140;2022-09-25T02:17:13;31.42;;;28.92;;
9005;SDS011;62284;50.702;7.140;2022-09-25T02:20:04;32.35;;;29.77;;
9005;SDS011;62284;50.702;7.140;2022-09-25T02:22:52;31.90;;;29.30;;
9005;SDS011;62284;50.702;7.140;2022-09-25T02:25:23;32.55;;;29.80;;
9005;SDS011;62284;50.702;7.140;2022-09-25T02:27:56;31.15;;;28.65;;
9005;SDS011;62284;50.702;7.140;2022-09-25T02:30:24;31.25;;;28.73;;
9005;SDS011;62284;50.702;7.140;2022-09-25T02:32:51;30.15;;;27.85;;
9005;SDS011;62284;50.702;7.140;2022-09-25T02:35:22;33.25;;;30.50;;
9005;SDS011;62284;50.702;7.140;2022-09-25T02:37:49;31.13;;;28.67;;
9005;SDS011;62284;50.702;7.140;2022-09-25T02:40:16;30.45;;;28.02;;
9005;SDS011;62284;50.702;7.140;2022-09-25T02:42:46;30.05;;;27.75;;
9005;SDS011;62284;50.702;7.140;2022-09-25T02:45:28;31.40;;;28.88;;
9005;SDS011;62284;50.702;7.140;2022-09-25T02:48:06;31.73;;;28.95;;
9005;SDS011;62284;50.702;7.140;2022-09-25T02:50:39;30.08;;;27.75;;
9005;SDS011;62284;50.702;7.140;2022-09-25T02:53:12;30.73;;;28.15;;
9005;SDS011;62284;50.702;7.140;2022-09-25T02:55:44;30.83;;;28.35;;
9005;SDS011;62284;50.702;7.140;2022-09-25T02:58:16;30.50;;;28.00;;
9005;SDS011;62284;50.702;7.140;2022-09-25T03:00:51;30.73;;;28.20;;
9005;SDS011;62284;50.702;7.140;2022-09-25T03:03:20;31.75;;;29.25;;
9005;SDS011;62284;50.702;7.140;2022-09-25T03:05:50;30.73;;;28.27;;
9005;SDS011;62284;50.702;7.140;2022-09-25T03:08:20;30.52;;;28.08;;
9005;SDS011;62284;50.702;7.140;2022-09-25T03:11:05;30.52;;;28.02;;
9005;SDS011;62284;50.702;7.140;2022-09-25T03:13:34;32.83;;;30.13;;
9005;SDS011;62284;50.702;7.140;2022-09-25T03:16:04;30.48;;;28.05;;
9005;SDS011;62284;50.702;7.140;2022-09-25T03:18:33;30.88;;;28.48;;
9005;SDS011;62284;50.702;7.140;2022-09-25T03:21:02;29.95;;;27.45;;
9005;SDS011;62284;50.702;7.140;2022-09-25T03:23:29;32.40;;;29.75;;
9005;SDS011;62284;50.702;7.140;2022-09-25T03:25:57;29.67;;;27.38;;
9005;SDS011;62284;50.702;7.140;2022-09-25T03:28:24;28.60;;;26.38;;
9005;SDS011;62284;50.702;7.140;2022-09-25T03:30:55;31.67;;;29.15;;
9005;SDS011;62284;50.702;7.140;2022-09-25T03:33:24;30.75;;;28.17;;
9005;SDS011;62284;50.702;7.140;2022-09-25T03:35:59;32.25;;;29.63;;
9005;SDS011;62284;50.702;7.140;2022-09-25T03:38:27;31.85;;;29.20;;
9005;SDS011;62284;50.702;7.140;2022-09-25T03:40:54;30.63;;;28.13;;
9005;SDS011;62284;50.702;7.140;2022-09-25T03:43:21;31.92;;;29.42;;
9005;SDS011;62284;50.702;7.140;2022-09-25T03:45:48;31.50;;;28.90;;
9005;SDS011;62284;50.702;7.140;2022-09-25T03:48:15;29.80;;;27.50;;
9005;SDS011;62284;50.702;7.140;2022-09-25T03:50:43;30.75;;;28.25;;
9005;SDS011;62284;50.702;7.140;2022-09-25T03:53:12;31.63;;;28.98;;
9005;SDS011;62284;50.702;7.140;2022-09-25T03:55:39;29.08;;;26.70;;
9005;SDS011;62284;50.702;7.140;2022-09-25T03:58:06;30.63;;;28.08;;
9005;SDS011;62284;50.702;7.140;2022-09-25T04:00:37;28.73;;;26.50;;
9005;SDS011;62284;50.702;7.140;2022-09-25T04:03:04;22.95;;;21.13;;
9005;SDS011;62284;50.702;7.140;2022-09-25T04:05:31;29.90;;;27.50;;
9005;SDS011;62284;50.702;7.140;2022-09-25T04:08:00;27.70;;;25.40;;
9005;SDS011;62284;50.702;7.140;2022-09-25T04:10:27;28.95;;;26.65;;
9005;SDS011;62284;50.702;7.140;2022-09-25T04:12:54;29.10;;;26.73;;
9005;SDS011;62284;50.702;7.140;2022-09-25T04:15:21;28.80;;;26.52;;
9005;SDS011;62284;50.702;7.140;2022-09-25T04:17:48;29.52;;;27.13;;
9005;SDS011;62284;50.702;7.140;2022-09-25T04:20:15;29.60;;;27.00;;
9005;SDS011;62284;50.702;7.140;2022-09-25T04:22:42;29.23;;;26.85;;
9005;SDS011;62284;50.702;7.140;2022-09-25T04:25:10;29.98;;;27.60;;
9005;SDS011;62284;50.702;7.140;2022-09-25T04:27:38;30.52;;;27.80;;
9005;SDS011;62284;50.702;7.140;2022-09-25T04:30:05;30.08;;;27.67;;
9005;SDS011;62284;50.702;7.140;2022-09-25T04:32:34;29.40;;;27.00;;
9005;SDS011;62284;50.702;7.140;2022-09-25T04:35:18;28.50;;;26.30;;
9005;SDS011;62284;50.702;7.140;2022-09-25T04:37:45;28.10;;;25.77;;
9005;SDS011;62284;50.702;7.140;2022-09-25T04:40:14;29.02;;;26.60;;
9005;SDS011;62284;50.702;7.140;2022-09-25T04:42:40;27.73;;;25.52;;
9005;SDS011;62284;50.702;7.140;2022-09-25T04:45:07;28.15;;;25.88;;
9005;SDS011;62284;50.702;7.140;2022-09-25T04:47:35;26.92;;;24.83;;
9005;SDS011;62284;50.702;7.140;2022-09-25T04:50:02;28.35;;;25.98;;
9005;SDS011;62284;50.702;7.140;2022-09-25T04:52:29;25.92;;;23.73;;
9005;SDS011;62284;50.702;7.140;2022-09-25T04:54:56;25.42;;;23.25;;
9005;SDS011;62284;50.702;7.140;2022-09-25T04:57:25;24.08;;;21.95;;
9005;SDS011;62284;50.702;7.140;2022-09-25T04:59:52;23.50;;;21.63;;
9005;SDS011;62284;50.702;7.140;2022-09-25T05:02:19;21.65;;;19.85;;
9005;SDS011;62284;50.702;7.140;2022-09-25T05:04:46;21.50;;;19.70;;
9005;SDS011;62284;50.702;7.140;2022-09-25T05:07:13;21.10;;;19.40;;
9005;SDS011;62284;50.702;7.140;2022-09-25T05:09:39;20.23;;;18.52;;
9005;SDS011;62284;50.702;7.140;2022-09-25T05:12:06;19.25;;;17.58;;
9005;SDS011;62284;50.702;7.140;2022-09-25T05:14:34;17.63;;;15.95;;
9005;SDS011;62284;50.702;7.140;2022-09-25T05:17:05;17.92;;;16.40;;
9005;SDS011;62284;50.702;7.140;2022-09-25T05:19:34;16.90;;;15.27;;
9005;SDS011;62284;50.702;7.140;2022-09-25T05:22:02;16.98;;;15.65;;
9005;SDS011;62284;50.702;7.140;2022-09-25T05:24:29;16.08;;;14.77;;
9005;SDS011;62284;50.702;7.140;2022-09-25T05:26:56;16.20;;;14.80;;
9005;SDS011;62284;50.702;7.140;2022-09-25T05:29:23;16.92;;;15.43;;
9005;SDS011;62284;50.702;7.140;2022-09-25T05:31:51;15.82;;;14.43;;
9005;SDS011;62284;50.702;7.140;2022-09-25T05:34:18;17.77;;;16.40;;
9005;SDS011;62284;50.702;7.140;2022-09-25T05:36:45;15.80;;;14.60;;
9005;SDS011;62284;50.702;7.140;2022-09-25T05:39:14;15.30;;;14.10;;
9005;SDS011;62284;50.702;7.140;2022-09-25T05:41:41;16.75;;;15.43;;
9005;SDS011;62284;50.702;7.140;2022-09-25T05:44:08;16.83;;;15.45;;
9005;SDS011;62284;50.702;7.140;2022-09-25T05:46:36;16.52;;;15.13;;
9005;SDS011;62284;50.702;7.140;2022-09-25T05:49:04;16.23;;;13.77;;
9005;SDS011;62284;50.702;7.140;2022-09-25T05:51:31;15.93;;;14.40;;
9005;SDS011;62284;50.702;7.140;2022-09-25T05:53:58;14.10;;;12.70;;
9005;SDS011;62284;50.702;7.140;2022-09-25T05:56:26;15.95;;;14.45;;
9005;SDS011;62284;50.702;7.140;2022-09-25T05:58:53;13.23;;;12.13;;
9005;SDS011;62284;50.702;7.140;2022-09-25T06:01:20;13.30;;;12.30;;
9005;SDS011;62284;50.702;7.140;2022-09-25T06:03:46;13.77;;;12.57;;
9005;SDS011;62284;50.702;7.140;2022-09-25T06:06:15;13.38;;;12.07;;
9005;SDS011;62284;50.702;7.140;2022-09-25T06:08:42;14.25;;;12.95;;
9005;SDS011;62284;50.702;7.140;2022-09-25T06:11:09;12.35;;;11.25;;
9005;SDS011;62284;50.702;7.140;2022-09-25T06:13:37;11.93;;;10.70;;
9005;SDS011;62284;50.702;7.140;2022-09-25T06:16:10;11.82;;;10.82;;
9005;SDS011;62284;50.702;7.140;2022-09-25T06:18:43;13.05;;;11.73;;
9005;SDS011;62284;50.702;7.140;2022-09-25T06:21:11;10.75;;;9.75;;
9005;SDS011;62284;50.702;7.140;2022-09-25T06:23:39;11.10;;;10.18;;
9005;SDS011;62284;50.702;7.140;2022-09-25T06:26:07;10.52;;;9.55;;
9005;SDS011;62284;50.702;7.140;2022-09-25T06:28:34;10.98;;;9.88;;
9005;SDS011;62284;50.702;7.140;2022-09-25T06:31:01;9.70;;;8.82;;
9005;SDS011;62284;50.702;7.140;2022-09-25T06:33:29;9.38;;;8.52;;
9005;SDS011;62284;50.702;7.140;2022-09-25T06:35:57;9.73;;;8.77;;
9005;SDS011;62284;50.702;7.140;2022-09-25T06:38:24;8.50;;;7.68;;
9005;SDS011;62284;50.702;7.140;2022-09-25T06:40:52;8.98;;;7.60;;
9005;SDS011;62284;50.702;7.140;2022-09-25T06:43:19;9.57;;;8.52;;
9005;SDS011;62284;50.702;7.140;2022-09-25T06:45:46;8.68;;;7.75;;
9005;SDS011;62284;50.702;7.140;2022-09-25T06:48:15;8.68;;;7.88;;
9005;SDS011;62284;50.702;7.140;2022-09-25T06:50:44;8.60;;;7.47;;
9005;SDS011;62284;50.702;7.140;2022-09-25T06:53:13;8.43;;;6.65;;
9005;SDS011;62284;50.702;7.140;2022-09-25T06:55:40;8.40;;;7.40;;
9005;SDS011;62284;50.702;7.140;2022-09-25T06:58:11;7.75;;;7.15;;
9005;SDS011;62284;50.702;7.140;2022-09-25T07:00:39;8.18;;;7.47;;
9005;SDS011;62284;50.702;7.140;2022-09-25T07:03:06;8.77;;;6.65;;
9005;SDS011;62284;50.702;7.140;2022-09-25T07:05:51;6.47;;;5.80;;
9005;SDS011;62284;50.702;7.140;2022-09-25T07:08:18;8.05;;;5.63;;
9005;SDS011;62284;50.702;7.140;2022-09-25T07:10:46;6.32;;;5.43;;
9005;SDS011;62284;50.702;7.140;2022-09-25T07:13:15;8.00;;;4.45;;
9005;SDS011;62284;50.702;7.140;2022-09-25T07:15:42;8.98;;;5.00;;
9005;SDS011;62284;50.702;7.140;2022-09-25T07:18:15;8.23;;;4.28;;
9005;SDS011;62284;50.702;7.140;2022-09-25T07:20:42;6.25;;;4.28;;
9005;SDS011;62284;50.702;7.140;2022-09-25T07:23:10;6.10;;;4.03;;
9005;SDS011;62284;50.702;7.140;2022-09-25T07:25:38;13.18;;;4.32;;
9005;SDS011;62284;50.702;7.140;2022-09-25T07:28:05;5.65;;;3.95;;
9005;SDS011;62284;50.702;7.140;2022-09-25T07:30:34;5.20;;;3.50;;
9005;SDS011;62284;50.702;7.140;2022-09-25T07:33:01;4.95;;;3.67;;
9005;SDS011;62284;50.702;7.140;2022-09-25T07:35:28;7.43;;;4.45;;
9005;SDS011;62284;50.702;7.140;2022-09-25T07:37:55;5.25;;;4.13;;
9005;SDS011;62284;50.702;7.140;2022-09-25T07:40:22;5.40;;;4.25;;
9005;SDS011;62284;50.702;7.140;2022-09-25T07:42:50;6.78;;;3.70;;
9005;SDS011;62284;50.702;7.140;2022-09-25T07:45:17;6.15;;;3.63;;
9005;SDS011;62284;50.702;7.140;2022-09-25T07:47:45;6.68;;;3.50;;
9005;SDS011;62284;50.702;7.140;2022-09-25T07:50:12;6.15;;;3.50;;
9005;SDS011;62284;50.702;7.140;2022-09-25T07:52:39;6.45;;;3.42;;
9005;SDS011;62284;50.702;7.140;2022-09-25T07:55:06;5.22;;;3.63;;
9005;SDS011;62284;50.702;7.140;2022-09-25T07:57:34;5.30;;;3.40;;
9005;SDS011;62284;50.702;7.140;2022-09-25T08:00:01;4.55;;;3.65;;
9005;SDS011;62284;50.702;7.140;2022-09-25T08:02:29;4.40;;;3.25;;
9005;SDS011;62284;50.702;7.140;2022-09-25T08:04:58;8.18;;;4.25;;
9005;SDS011;62284;50.702;7.140;2022-09-25T08:07:26;5.07;;;3.58;;
9005;SDS011;62284;50.702;7.140;2022-09-25T08:09:53;6.13;;;3.78;;
9005;SDS011;62284;50.702;7.140;2022-09-25T08:12:20;6.90;;;4.03;;
9005;SDS011;62284;50.702;7.140;2022-09-25T08:14:48;6.85;;;3.83;;
9005;SDS011;62284;50.702;7.140;2022-09-25T08:17:15;5.72;;;3.58;;
9005;SDS011;62284;50.702;7.140;2022-09-25T08:19:42;7.22;;;3.42;;
9005;SDS011;62284;50.702;7.140;2022-09-25T08:22:11;7.00;;;4.25;;
9005;SDS011;62284;50.702;7.140;2022-09-25T08:24:38;6.97;;;3.38;;
9005;SDS011;62284;50.702;7.140;2022-09-25T08:27:05;5.32;;;3.38;;
9005;SDS011;62284;50.702;7.140;2022-09-25T08:29:32;4.70;;;3.00;;
9005;SDS011;62284;50.702;7.140;2022-09-25T08:31:59;7.45;;;3.78;;
9005;SDS011;62284;50.702;7.140;2022-09-25T08:34:26;6.60;;;3.47;;
9005;SDS011;62284;50.702;7.140;2022-09-25T08:36:53;5.38;;;3.17;;
9005;SDS011;62284;50.702;7.140;2022-09-25T08:39:28;8.38;;;3.75;;
9005;SDS011;62284;50.702;7.140;2022-09-25T08:41:55;6.35;;;3.55;;
9005;SDS011;62284;50.702;7.140;2022-09-25T08:44:24;6.70;;;3.67;;
9005;SDS011;62284;50.702;7.140;2022-09-25T08:46:58;4.68;;;3.17;;
9005;SDS011;62284;50.702;7.140;2022-09-25T08:49:47;7.43;;;3.35;;
9005;SDS011;62284;50.702;7.140;2022-09-25T08:52:20;5.30;;;3.13;;
9005;SDS011;62284;50.702;7.140;2022-09-25T08:54:48;8.88;;;3.92;;
9005;SDS011;62284;50.702;7.140;2022-09-25T08:57:20;6.20;;;3.15;;
9005;SDS011;62284;50.702;7.140;2022-09-25T08:59:53;7.72;;;3.65;;
9005;SDS011;62284;50.702;7.140;2022-09-25T09:02:23;7.90;;;4.20;;
9005;SDS011;62284;50.702;7.140;2022-09-25T09:04:59;3.95;;;2.95;;
9005;SDS011;62284;50.702;7.140;2022-09-25T09:07:28;5.57;;;3.38;;
9005;SDS011;62284;50.702;7.140;2022-09-25T09:10:05;6.47;;;3.20;;
9005;SDS011;62284;50.702;7.140;2022-09-25T09:12:42;8.30;;;3.40;;
9005;SDS011;62284;50.702;7.140;2022-09-25T09:15:18;7.30;;;3.97;;
9005;SDS011;62284;50.702;7.140;2022-09-25T09:17:52;3.33;;;3.03;;
9005;SDS011;62284;50.702;7.140;2022-09-25T09:20:22;6.43;;;3.50;;
9005;SDS011;62284;50.702;7.140;2022-09-25T09:22:56;7.43;;;4.13;;
9005;SDS011;62284;50.702;7.140;2022-09-25T09:25:26;7.47;;;4.18;;
9005;SDS011;62284;50.702;7.140;2022-09-25T09:28:03;5.65;;;3.67;;
9005;SDS011;62284;50.702;7.140;2022-09-25T09:30:44;6.43;;;4.40;;
9005;SDS011;62284;50.702;7.140;2022-09-25T09:33:22;6.38;;;4.05;;
9005;SDS011;62284;50.702;7.140;2022-09-25T09:36:07;4.95;;;3.63;;
9005;SDS011;62284;50.702;7.140;2022-09-25T09:38:43;7.43;;;3.90;;
9005;SDS011;62284;50.702;7.140;2022-09-25T09:41:31;6.35;;;3.83;;
9005;SDS011;62284;50.702;7.140;2022-09-25T09:44:08;4.97;;;3.97;;
9005;SDS011;62284;50.702;7.140;2022-09-25T09:46:48;5.25;;;4.28;;
9005;SDS011;62284;50.702;7.140;2022-09-25T09:49:24;6.10;;;3.70;;
9005;SDS011;62284;50.702;7.140;2022-09-25T09:51:56;5.78;;;3.70;;
9005;SDS011;62284;50.702;7.140;2022-09-25T09:54:29;5.65;;;3.42;;
9005;SDS011;62284;50.702;7.140;2022-09-25T09:57:02;6.43;;;3.70;;
9005;SDS011;62284;50.702;7.140;2022-09-25T09:59:48;4.90;;;3.67;;
9005;SDS011;62284;50.702;7.140;2022-09-25T10:02:29;4.57;;;3.28;;
9005;SDS011;62284;50.702;7.140;2022-09-25T10:05:03;5.40;;;3.03;;
9005;SDS011;62284;50.702;7.140;2022-09-25T10:07:34;6.55;;;3.22;;
9005;SDS011;62284;50.702;7.140;2022-09-25T10:10:08;4.88;;;3.03;;
9005;SDS011;62284;50.702;7.140;2022-09-25T10:12:41;4.80;;;3.50;;
9005;SDS011;62284;50.702;7.140;2022-09-25T10:15:13;4.20;;;3.08;;
9005;SDS011;62284;50.702;7.140;2022-09-25T10:17:44;5.20;;;3.10;;
9005;SDS011;62284;50.702;7.140;2022-09-25T10:20:13;5.88;;;2.58;;
9005;SDS011;62284;50.702;7.140;2022-09-25T10:22:44;4.90;;;2.75;;
9005;SDS011;62284;50.702;7.140;2022-09-25T10:25:11;4.68;;;2.92;;
9005;SDS011;62284;50.702;7.140;2022-09-25T10:27:40;4.43;;;2.50;;
9005;SDS011;62284;50.702;7.140;2022-09-25T10:30:17;5.93;;;2.83;;
9005;SDS011;62284;50.702;7.140;2022-09-25T10:32:49;6.55;;;2.42;;
9005;SDS011;62284;50.702;7.140;2022-09-25T10:35:23;3.90;;;2.55;;
9005;SDS011;62284;50.702;7.140;2022-09-25T10:37:52;5.57;;;2.90;;
9005;SDS011;62284;50.702;7.140;2022-09-25T10:40:22;5.85;;;2.92;;
9005;SDS011;62284;50.702;7.140;2022-09-25T10:43:03;5.30;;;2.63;;
9005;SDS011;62284;50.702;7.140;2022-09-25T10:45:32;4.60;;;2.67;;
9005;SDS011;62284;50.702;7.140;2022-09-25T10:48:01;6.10;;;2.55;;
9005;SDS011;62284;50.702;7.140;2022-09-25T10:51:04;4.53;;;2.50;;
9005;SDS011;62284;50.702;7.140;2022-09-25T10:53:32;4.55;;;2.83;;
9005;SDS011;62284;50.702;7.140;2022-09-25T10:56:01;6.55;;;2.40;;
9005;SDS011;62284;50.702;7.140;2022-09-25T10:58:38;3.95;;;2.08;;
9005;SDS011;62284;50.702;7.140;2022-09-25T11:01:08;3.75;;;1.92;;
9005;SDS011;62284;50.702;7.140;2022-09-25T11:03:38;4.13;;;2.03;;
9005;SDS011;62284;50.702;7.140;2022-09-25T11:06:15;5.53;;;1.83;;
9005;SDS011;62284;50.702;7.140;2022-09-25T11:08:45;6.43;;;2.08;;
9005;SDS011;62284;50.702;7.140;2022-09-25T11:11:19;5.60;;;1.88;;
9005;SDS011;62284;50.702;7.140;2022-09-25T11:13:52;3.63;;;1.60;;
9005;SDS011;62284;50.702;7.140;2022-09-25T11:19:10;4.55;;;2.00;;
9005;SDS011;62284;50.702;7.140;2022-09-25T11:21:39;3.78;;;1.83;;
9005;SDS011;62284;50.702;7.140;2022-09-25T11:24:14;3.42;;;2.10;;
9005;SDS011;62284;50.702;7.140;2022-09-25T11:26:49;4.65;;;2.40;;
9005;SDS011;62284;50.702;7.140;2022-09-25T11:29:25;7.75;;;2.42;;
9005;SDS011;62284;50.702;7.140;2022-09-25T11:32:03;3.47;;;1.92;;
9005;SDS011;62284;50.702;7.140;2022-09-25T11:34:48;2.50;;;1.65;;
9005;SDS011;62284;50.702;7.140;2022-09-25T11:37:35;2.80;;;1.75;;
9005;SDS011;62284;50.702;7.140;2022-09-25T11:40:15;4.20;;;2.33;;
9005;SDS011;62284;50.702;7.140;2022-09-25T11:43:12;2.95;;;1.70;;
9005;SDS011;62284;50.702;7.140;2022-09-25T11:45:46;3.72;;;2.10;;
9005;SDS011;62284;50.702;7.140;2022-09-25T11:48:18;2.35;;;1.65;;
9005;SDS011;62284;50.702;7.140;2022-09-25T11:50:50;3.65;;;2.00;;
9005;SDS011;62284;50.702;7.140;2022-09-25T11:53:26;5.00;;;2.08;;
9005;SDS011;62284;50.702;7.140;2022-09-25T11:56:08;3.05;;;1.90;;
9005;SDS011;62284;50.702;7.140;2022-09-25T11:58:51;2.90;;;2.15;;
9005;SDS011;62284;50.702;7.140;2022-09-25T12:01:28;3.72;;;2.35;;
9005;SDS011;62284;50.702;7.140;2022-09-25T12:04:08;2.90;;;1.63;;
9005;SDS011;62284;50.702;7.140;2022-09-25T12:10:11;3.00;;;1.55;;
9005;SDS011;62284;50.702;7.140;2022-09-25T12:12:48;2.78;;;1.30;;
9005;SDS011;62284;50.702;7.140;2022-09-25T12:15:25;2.25;;;1.25;;
9005;SDS011;62284;50.702;7.140;2022-09-25T12:18:03;2.97;;;1.42;;
9005;SDS011;62284;50.702;7.140;2022-09-25T12:20:36;3.00;;;1.70;;
9005;SDS011;62284;50.702;7.140;2022-09-25T12:23:13;3.42;;;1.90;;
9005;SDS011;62284;50.702;7.140;2022-09-25T12:25:53;3.80;;;1.85;;
9005;SDS011;62284;50.702;7.140;2022-09-25T12:28:42;2.85;;;1.90;;
9005;SDS011;62284;50.702;7.140;2022-09-25T12:31:36;1.70;;;1.00;;
9005;SDS011;62284;50.702;7.140;2022-09-25T12:34:12;3.80;;;1.75;;
9005;SDS011;62284;50.702;7.140;2022-09-25T12:36:51;1.95;;;1.40;;
9005;SDS011;62284;50.702;7.140;2022-09-25T12:39:25;2.40;;;1.38;;
9005;SDS011;62284;50.702;7.140;2022-09-25T12:42:00;3.72;;;2.10;;
9005;SDS011;62284;50.702;7.140;2022-09-25T12:44:35;2.28;;;1.38;;
9005;SDS011;62284;50.702;7.140;2022-09-25T12:47:08;2.70;;;1.55;;
9005;SDS011;62284;50.702;7.140;2022-09-25T12:49:44;3.45;;;1.75;;
9005;SDS011;62284;50.702;7.140;2022-09-25T12:52:16;4.75;;;1.75;;
9005;SDS011;62284;50.702;7.140;2022-09-25T12:54:49;2.78;;;1.55;;
9005;SDS011;62284;50.702;7.140;2022-09-25T12:57:19;2.53;;;1.30;;
9005;SDS011;62284;50.702;7.140;2022-09-25T12:59:51;3.80;;;1.70;;
9005;SDS011;62284;50.702;7.140;2022-09-25T13:02:24;4.47;;;1.40;;
9005;SDS011;62284;50.702;7.140;2022-09-25T13:04:58;1.95;;;1.20;;
9005;SDS011;62284;50.702;7.140;2022-09-25T13:07:32;2.35;;;1.45;;
9005;SDS011;62284;50.702;7.140;2022-09-25T13:10:05;2.75;;;1.67;;
9005;SDS011;62284;50.702;7.140;2022-09-25T13:12:45;3.25;;;1.63;;
9005;SDS011;62284;50.702;7.140;2022-09-25T13:15:14;2.10;;;1.30;;
9005;SDS011;62284;50.702;7.140;2022-09-25T13:17:45;2.72;;;1.70;;
9005;SDS011;62284;50.702;7.140;2022-09-25T13:23:13;2.95;;;1.27;;
9005;SDS011;62284;50.702;7.140;2022-09-25T13:25:42;1.27;;;1.17;;
9005;SDS011;62284;50.702;7.140;2022-09-25T13:28:15;2.92;;;1.50;;
9005;SDS011;62284;50.702;7.140;2022-09-25T13:31:02;1.95;;;1.23;;
9005;SDS011;62284;50.702;7.140;2022-09-25T13:33:41;1.90;;;1.08;;
9005;SDS011;62284;50.702;7.140;2022-09-25T13:36:29;1.52;;;1.05;;
9005;SDS011;62284;50.702;7.140;2022-09-25T13:39:00;1.70;;;1.35;;
9005;SDS011;62284;50.702;7.140;2022-09-25T13:41:51;2.45;;;1.50;;
9005;SDS011;62284;50.702;7.140;2022-09-25T13:44:36;1.90;;;1.38;;
9005;SDS011;62284;50.702;7.140;2022-09-25T13:50:36;2.42;;;1.25;;
9005;SDS011;62284;50.702;7.140;2022-09-25T13:53:12;2.10;;;1.10;;
9005;SDS011;62284;50.702;7.140;2022-09-25T13:55:41;2.13;;;1.52;;
9005;SDS011;62284;50.702;7.140;2022-09-25T13:58:29;2.00;;;1.60;;
9005;SDS011;62284;50.702;7.140;2022-09-25T14:00:57;2.78;;;1.05;;
9005;SDS011;62284;50.702;7.140;2022-09-25T14:03:29;1.42;;;1.13;;
9005;SDS011;62284;50.702;7.140;2022-09-25T14:06:02;1.63;;;0.95;;
9005;SDS011;62284;50.702;7.140;2022-09-25T14:08:32;2.08;;;1.23;;
9005;SDS011;62284;50.702;7.140;2022-09-25T14:11:00;1.55;;;1.23;;
9005;SDS011;62284;50.702;7.140;2022-09-25T14:13:29;1.95;;;1.30;;
9005;SDS011;62284;50.702;7.140;2022-09-25T14:15:59;2.22;;;1.30;;
9005;SDS011;62284;50.702;7.140;2022-09-25T14:18:30;1.95;;;1.50;;
9005;SDS011;62284;50.702;7.140;2022-09-25T14:21:06;2.67;;;1.48;;
9005;SDS011;62284;50.702;7.140;2022-09-25T14:23:45;2.70;;;1.67;;
9005;SDS011;62284;50.702;7.140;2022-09-25T14:26:16;1.95;;;1.52;;
9005;SDS011;62284;50.702;7.140;2022-09-25T14:28:45;1.83;;;1.13;;
9005;SDS011;62284;50.702;7.140;2022-09-25T14:31:30;1.85;;;1.10;;
9005;SDS011;62284;50.702;7.140;2022-09-25T14:37:15;2.63;;;1.80;;
9005;SDS011;62284;50.702;7.140;2022-09-25T14:40:00;1.63;;;1.33;;
9005;SDS011;62284;50.702;7.140;2022-09-25T14:42:31;3.03;;;1.52;;
9005;SDS011;62284;50.702;7.140;2022-09-25T14:45:30;2.38;;;1.40;;
9005;SDS011;62284;50.702;7.140;2022-09-25T14:48:17;2.53;;;1.50;;
9005;SDS011;62284;50.702;7.140;2022-09-25T14:50:51;2.92;;;1.63;;
9005;SDS011;62284;50.702;7.140;2022-09-25T14:53:22;1.95;;;1.35;;
9005;SDS011;62284;50.702;7.140;2022-09-25T14:55:54;1.17;;;1.05;;
9005;SDS011;62284;50.702;7.140;2022-09-25T14:58:24;3.25;;;1.50;;
9005;SDS011;62284;50.702;7.140;2022-09-25T15:00:54;2.67;;;1.85;;
9005;SDS011;62284;50.702;7.140;2022-09-25T15:03:25;2.45;;;1.33;;
9005;SDS011;62284;50.702;7.140;2022-09-25T15:05:57;2.17;;;1.58;;
9005;SDS011;62284;50.702;7.140;2022-09-25T15:08:29;1.42;;;1.23;;
9005;SDS011;62284;50.702;7.140;2022-09-25T15:11:02;2.10;;;1.65;;
9005;SDS011;62284;50.702;7.140;2022-09-25T15:13:34;2.90;;;2.10;;
9005;SDS011;62284;50.702;7.140;2022-09-25T15:16:01;2.45;;;1.65;;
9005;SDS011;62284;50.702;7.140;2022-09-25T15:18:49;1.92;;;1.60;;
9005;SDS011;62284;50.702;7.140;2022-09-25T15:21:20;3.05;;;1.40;;
9005;SDS011;62284;50.702;7.140;2022-09-25T15:23:50;1.65;;;1.02;;
9005;SDS011;62284;50.702;7.140;2022-09-25T15:26:19;2.30;;;1.40;;
9005;SDS011;62284;50.702;7.140;2022-09-25T15:28:47;3.05;;;1.80;;
9005;SDS011;62284;50.702;7.140;2022-09-25T15:31:15;2.15;;;1.63;;
9005;SDS011;62284;50.702;7.140;2022-09-25T15:33:43;1.95;;;1.48;;